Etusivu
METAR-TAF:

METAR-TAF

Lentoasemat :

Wink, Texas, Yhdysvallat

Leveyspiiri: 31-46-47N, Pituuspiiri: 103-12-05W, korkeus merenpinnasta: 860 m

METAR: puuttuu

Aika: 17:58 (22:58 UTC)

Sääennuste

Tämä raportti tehtiin 5 tuntia ja 38 minuuttia sitten, kello 17.20 UTC
Ennuste voimassa 13. päivästä klo 18 UTC - 14. päivään klo 18 UTC
Tuuli 19 kn kaakosta puuskistuen 27 kn:hen
Näkyvyys: 10 km
Hajanaisia pilviä 7000 ft:n korkeudessa
From 14. päivästä klo 0200 UTC
Tuuli 11 kn kaakosta
Näkyvyys: 10 km
selkeää
From 14. päivästä klo 1600 UTC
Tuuli 10 kn etelästä/kaakosta
Näkyvyys: 10 km
Hajanaisia pilviä 4500 ft:n korkeudessa
Hajanaisia pilviä 25000 ft:n korkeudessa

TAF: KINK 131720Z 1318/1418 13019G27KT P6SM SCT070 FM140200 14011KT P6SM SKC FM141600 15010KT P6SM SCT045 SCT250

Säähavainnot ja -ennusteet yli 4000 lentoasemalta (METAR- ja TAF-raportit).

Käytössä olevat sääasemat on merkitty karttaan keltaisilla ja punaisilla pisteillä.

Aseta hiiri pisteen päälle nähdäksesi sääaseman nimen.

Klikkaa sitten nähdäksesi säähavainnot ja -ennusteet.

Kartan vaihtaminen: klikkaa mustalla rastilla varustettuja vihreitä pisteitä, niin voit zoomata sisään; viivalla varustettua vihreää pistettä, niin voit zoomata ulos tai vihreitä nuolia, niin pääset viereisille kartoille.


METAR-TAF: